sensor_id;sensor_type;location;lat;lon;timestamp;temperature;humidity
11615;DHT22;5863;52.832;4.758;2022-08-21T00:00:17;17.10;99.90
11615;DHT22;5863;52.832;4.758;2022-08-21T00:02:46;17.10;99.90
11615;DHT22;5863;52.832;4.758;2022-08-21T00:05:14;17.10;99.90
11615;DHT22;5863;52.832;4.758;2022-08-21T00:07:42;17.10;99.90
11615;DHT22;5863;52.832;4.758;2022-08-21T00:10:09;17.10;99.90
11615;DHT22;5863;52.832;4.758;2022-08-21T00:12:37;17.10;99.90
11615;DHT22;5863;52.832;4.758;2022-08-21T00:15:05;17.10;99.90
11615;DHT22;5863;52.832;4.758;2022-08-21T00:17:32;17.10;99.90
11615;DHT22;5863;52.832;4.758;2022-08-21T00:19:58;17.10;99.90
11615;DHT22;5863;52.832;4.758;2022-08-21T00:22:25;17.00;99.90
11615;DHT22;5863;52.832;4.758;2022-08-21T00:24:53;17.00;99.90
11615;DHT22;5863;52.832;4.758;2022-08-21T00:27:20;17.00;99.90
11615;DHT22;5863;52.832;4.758;2022-08-21T00:29:47;17.00;99.90
11615;DHT22;5863;52.832;4.758;2022-08-21T00:32:19;17.00;99.90
11615;DHT22;5863;52.832;4.758;2022-08-21T00:34:46;17.00;99.90
11615;DHT22;5863;52.832;4.758;2022-08-21T00:37:13;17.10;99.90
11615;DHT22;5863;52.832;4.758;2022-08-21T00:39:40;17.00;99.90
11615;DHT22;5863;52.832;4.758;2022-08-21T00:42:10;17.00;99.90
11615;DHT22;5863;52.832;4.758;2022-08-21T00:44:40;17.00;99.90
11615;DHT22;5863;52.832;4.758;2022-08-21T00:47:07;16.90;99.90
11615;DHT22;5863;52.832;4.758;2022-08-21T00:49:35;16.90;99.90
11615;DHT22;5863;52.832;4.758;2022-08-21T00:52:05;16.90;99.90
11615;DHT22;5863;52.832;4.758;2022-08-21T00:54:32;17.00;99.90
11615;DHT22;5863;52.832;4.758;2022-08-21T00:57:02;17.00;99.90
11615;DHT22;5863;52.832;4.758;2022-08-21T00:59:34;17.00;99.90
11615;DHT22;5863;52.832;4.758;2022-08-21T01:02:02;17.00;99.90
11615;DHT22;5863;52.832;4.758;2022-08-21T01:04:29;16.90;99.90
11615;DHT22;5863;52.832;4.758;2022-08-21T01:06:56;16.90;99.90
11615;DHT22;5863;52.832;4.758;2022-08-21T01:09:22;16.90;99.90
11615;DHT22;5863;52.832;4.758;2022-08-21T01:11:50;16.90;99.90
11615;DHT22;5863;52.832;4.758;2022-08-21T01:14:17;16.90;99.90
11615;DHT22;5863;52.832;4.758;2022-08-21T01:16:50;16.80;99.90
11615;DHT22;5863;52.832;4.758;2022-08-21T01:19:18;16.80;99.90
11615;DHT22;5863;52.832;4.758;2022-08-21T01:21:50;16.80;99.90
11615;DHT22;5863;52.832;4.758;2022-08-21T01:24:17;16.80;99.90
11615;DHT22;5863;52.832;4.758;2022-08-21T01:26:44;16.80;99.90
11615;DHT22;5863;52.832;4.758;2022-08-21T01:29:15;16.80;99.90
11615;DHT22;5863;52.832;4.758;2022-08-21T01:31:43;16.90;99.90
11615;DHT22;5863;52.832;4.758;2022-08-21T01:34:10;16.90;99.90
11615;DHT22;5863;52.832;4.758;2022-08-21T01:36:37;16.90;99.90
11615;DHT22;5863;52.832;4.758;2022-08-21T01:39:08;16.90;99.90
11615;DHT22;5863;52.832;4.758;2022-08-21T01:41:35;16.80;99.90
11615;DHT22;5863;52.832;4.758;2022-08-21T01:44:02;16.80;99.90
11615;DHT22;5863;52.832;4.758;2022-08-21T01:46:29;16.90;99.90
11615;DHT22;5863;52.832;4.758;2022-08-21T01:48:56;16.90;99.90
11615;DHT22;5863;52.832;4.758;2022-08-21T01:51:23;16.90;99.90
11615;DHT22;5863;52.832;4.758;2022-08-21T01:53:49;16.90;99.90
11615;DHT22;5863;52.832;4.758;2022-08-21T01:56:18;17.00;99.90
11615;DHT22;5863;52.832;4.758;2022-08-21T01:58:46;17.00;99.90
11615;DHT22;5863;52.832;4.758;2022-08-21T02:01:13;17.00;99.90
11615;DHT22;5863;52.832;4.758;2022-08-21T02:03:40;16.90;99.90
11615;DHT22;5863;52.832;4.758;2022-08-21T02:06:11;16.90;99.90
11615;DHT22;5863;52.832;4.758;2022-08-21T02:08:38;16.90;99.90
11615;DHT22;5863;52.832;4.758;2022-08-21T02:11:05;16.90;99.90
11615;DHT22;5863;52.832;4.758;2022-08-21T02:13:33;16.80;99.90
11615;DHT22;5863;52.832;4.758;2022-08-21T02:16:00;16.80;99.90
11615;DHT22;5863;52.832;4.758;2022-08-21T02:18:27;16.90;99.90
11615;DHT22;5863;52.832;4.758;2022-08-21T02:20:55;16.90;99.90
11615;DHT22;5863;52.832;4.758;2022-08-21T02:23:21;16.90;99.90
11615;DHT22;5863;52.832;4.758;2022-08-21T02:25:48;17.00;99.90
11615;DHT22;5863;52.832;4.758;2022-08-21T02:28:15;16.90;99.90
11615;DHT22;5863;52.832;4.758;2022-08-21T02:30:46;16.90;99.90
11615;DHT22;5863;52.832;4.758;2022-08-21T02:33:13;16.70;99.90
11615;DHT22;5863;52.832;4.758;2022-08-21T02:35:41;16.70;99.90
11615;DHT22;5863;52.832;4.758;2022-08-21T02:38:11;16.70;99.90
11615;DHT22;5863;52.832;4.758;2022-08-21T02:40:42;16.80;99.90
11615;DHT22;5863;52.832;4.758;2022-08-21T02:43:09;16.70;99.90
11615;DHT22;5863;52.832;4.758;2022-08-21T02:45:37;16.70;99.90
11615;DHT22;5863;52.832;4.758;2022-08-21T02:48:08;16.70;99.90
11615;DHT22;5863;52.832;4.758;2022-08-21T02:50:39;16.60;99.90
11615;DHT22;5863;52.832;4.758;2022-08-21T02:53:07;16.60;99.90
11615;DHT22;5863;52.832;4.758;2022-08-21T02:55:36;16.50;99.90
11615;DHT22;5863;52.832;4.758;2022-08-21T02:58:04;16.50;99.90
11615;DHT22;5863;52.832;4.758;2022-08-21T03:00:32;16.50;99.90
11615;DHT22;5863;52.832;4.758;2022-08-21T03:02:59;16.50;99.90
11615;DHT22;5863;52.832;4.758;2022-08-21T03:05:29;16.50;99.90
11615;DHT22;5863;52.832;4.758;2022-08-21T03:07:57;16.60;99.90
11615;DHT22;5863;52.832;4.758;2022-08-21T03:10:26;16.60;99.90
11615;DHT22;5863;52.832;4.758;2022-08-21T03:12:53;16.50;99.90
11615;DHT22;5863;52.832;4.758;2022-08-21T03:15:22;16.30;99.90
11615;DHT22;5863;52.832;4.758;2022-08-21T03:17:50;16.40;99.90
11615;DHT22;5863;52.832;4.758;2022-08-21T03:20:19;16.40;99.90
11615;DHT22;5863;52.832;4.758;2022-08-21T03:22:49;16.40;99.90
11615;DHT22;5863;52.832;4.758;2022-08-21T03:25:16;16.30;99.90
11615;DHT22;5863;52.832;4.758;2022-08-21T03:27:43;16.30;99.90
11615;DHT22;5863;52.832;4.758;2022-08-21T03:30:11;16.30;99.90
11615;DHT22;5863;52.832;4.758;2022-08-21T03:32:37;16.30;99.90
11615;DHT22;5863;52.832;4.758;2022-08-21T03:35:05;16.40;99.90
11615;DHT22;5863;52.832;4.758;2022-08-21T03:37:32;16.40;99.90
11615;DHT22;5863;52.832;4.758;2022-08-21T03:40:00;16.40;99.90
11615;DHT22;5863;52.832;4.758;2022-08-21T03:42:29;16.40;99.90
11615;DHT22;5863;52.832;4.758;2022-08-21T03:44:55;16.40;99.90
11615;DHT22;5863;52.832;4.758;2022-08-21T03:47:22;16.40;99.90
11615;DHT22;5863;52.832;4.758;2022-08-21T03:49:49;16.50;99.90
11615;DHT22;5863;52.832;4.758;2022-08-21T03:52:16;16.50;99.90
11615;DHT22;5863;52.832;4.758;2022-08-21T03:54:44;16.60;99.90
11615;DHT22;5863;52.832;4.758;2022-08-21T03:57:12;16.60;99.90
11615;DHT22;5863;52.832;4.758;2022-08-21T03:59:39;16.70;99.90
11615;DHT22;5863;52.832;4.758;2022-08-21T04:02:07;16.70;99.90
11615;DHT22;5863;52.832;4.758;2022-08-21T04:04:35;16.70;99.90
11615;DHT22;5863;52.832;4.758;2022-08-21T04:07:02;16.60;99.90
11615;DHT22;5863;52.832;4.758;2022-08-21T04:09:29;16.60;99.90
11615;DHT22;5863;52.832;4.758;2022-08-21T04:11:56;16.60;99.90
11615;DHT22;5863;52.832;4.758;2022-08-21T04:14:24;16.60;99.90
11615;DHT22;5863;52.832;4.758;2022-08-21T04:16:51;16.60;99.90
11615;DHT22;5863;52.832;4.758;2022-08-21T04:19:18;16.60;99.90
11615;DHT22;5863;52.832;4.758;2022-08-21T04:21:44;16.70;99.90
11615;DHT22;5863;52.832;4.758;2022-08-21T04:24:11;16.70;99.90
11615;DHT22;5863;52.832;4.758;2022-08-21T04:26:39;16.80;99.90
11615;DHT22;5863;52.832;4.758;2022-08-21T04:29:06;16.80;99.90
11615;DHT22;5863;52.832;4.758;2022-08-21T04:31:35;16.80;99.90
11615;DHT22;5863;52.832;4.758;2022-08-21T04:34:02;16.80;99.90
11615;DHT22;5863;52.832;4.758;2022-08-21T04:36:30;16.80;99.90
11615;DHT22;5863;52.832;4.758;2022-08-21T04:38:57;16.70;99.90
11615;DHT22;5863;52.832;4.758;2022-08-21T04:41:24;16.70;99.90
11615;DHT22;5863;52.832;4.758;2022-08-21T04:43:50;16.70;99.90
11615;DHT22;5863;52.832;4.758;2022-08-21T04:46:17;16.70;99.90
11615;DHT22;5863;52.832;4.758;2022-08-21T04:48:45;16.70;99.90
11615;DHT22;5863;52.832;4.758;2022-08-21T04:51:16;16.80;99.90
11615;DHT22;5863;52.832;4.758;2022-08-21T04:53:46;16.80;99.90
11615;DHT22;5863;52.832;4.758;2022-08-21T04:59:00;16.80;99.90
11615;DHT22;5863;52.832;4.758;2022-08-21T05:01:29;16.90;99.90
11615;DHT22;5863;52.832;4.758;2022-08-21T05:03:59;16.90;99.90
11615;DHT22;5863;52.832;4.758;2022-08-21T05:06:28;16.90;99.90
11615;DHT22;5863;52.832;4.758;2022-08-21T05:08:58;17.00;99.90
11615;DHT22;5863;52.832;4.758;2022-08-21T05:11:24;17.00;99.90
11615;DHT22;5863;52.832;4.758;2022-08-21T05:13:51;17.00;99.90
11615;DHT22;5863;52.832;4.758;2022-08-21T05:16:21;17.10;99.90
11615;DHT22;5863;52.832;4.758;2022-08-21T05:18:48;17.20;99.90
11615;DHT22;5863;52.832;4.758;2022-08-21T05:21:16;17.50;99.90
11615;DHT22;5863;52.832;4.758;2022-08-21T05:23:43;17.80;99.90
11615;DHT22;5863;52.832;4.758;2022-08-21T05:26:13;18.20;99.90
11615;DHT22;5863;52.832;4.758;2022-08-21T05:28:39;18.70;99.90
11615;DHT22;5863;52.832;4.758;2022-08-21T05:31:06;19.10;99.90
11615;DHT22;5863;52.832;4.758;2022-08-21T05:33:33;19.40;99.90
11615;DHT22;5863;52.832;4.758;2022-08-21T05:36:00;19.60;99.90
11615;DHT22;5863;52.832;4.758;2022-08-21T05:38:28;19.60;99.90
11615;DHT22;5863;52.832;4.758;2022-08-21T05:40:55;19.60;99.90
11615;DHT22;5863;52.832;4.758;2022-08-21T05:43:21;19.40;99.90
11615;DHT22;5863;52.832;4.758;2022-08-21T05:45:48;19.50;99.90
11615;DHT22;5863;52.832;4.758;2022-08-21T05:48:16;19.60;99.90
11615;DHT22;5863;52.832;4.758;2022-08-21T05:50:45;19.80;99.90
11615;DHT22;5863;52.832;4.758;2022-08-21T05:53:12;19.90;99.90
11615;DHT22;5863;52.832;4.758;2022-08-21T05:55:41;20.30;99.90
11615;DHT22;5863;52.832;4.758;2022-08-21T05:58:07;20.90;99.90
11615;DHT22;5863;52.832;4.758;2022-08-21T06:00:35;21.50;99.90
11615;DHT22;5863;52.832;4.758;2022-08-21T06:03:03;22.10;99.90
11615;DHT22;5863;52.832;4.758;2022-08-21T06:05:30;22.60;99.90
11615;DHT22;5863;52.832;4.758;2022-08-21T06:07:56;23.10;99.90
11615;DHT22;5863;52.832;4.758;2022-08-21T06:10:23;23.70;99.90
11615;DHT22;5863;52.832;4.758;2022-08-21T06:12:54;24.10;99.90
11615;DHT22;5863;52.832;4.758;2022-08-21T06:15:21;24.50;99.90
11615;DHT22;5863;52.832;4.758;2022-08-21T06:17:48;24.90;99.90
11615;DHT22;5863;52.832;4.758;2022-08-21T06:20:14;25.10;99.90
11615;DHT22;5863;52.832;4.758;2022-08-21T06:22:41;25.10;99.90
11615;DHT22;5863;52.832;4.758;2022-08-21T06:25:09;24.80;99.90
11615;DHT22;5863;52.832;4.758;2022-08-21T06:27:43;24.80;99.90
11615;DHT22;5863;52.832;4.758;2022-08-21T06:30:18;24.80;99.90
11615;DHT22;5863;52.832;4.758;2022-08-21T06:32:45;25.00;99.90
11615;DHT22;5863;52.832;4.758;2022-08-21T06:35:12;25.70;99.90
11615;DHT22;5863;52.832;4.758;2022-08-21T06:37:38;26.30;99.90
11615;DHT22;5863;52.832;4.758;2022-08-21T06:40:09;26.80;99.90
11615;DHT22;5863;52.832;4.758;2022-08-21T06:42:37;27.30;99.90
11615;DHT22;5863;52.832;4.758;2022-08-21T06:45:05;27.60;99.50
11615;DHT22;5863;52.832;4.758;2022-08-21T06:47:33;28.00;99.10
11615;DHT22;5863;52.832;4.758;2022-08-21T06:50:00;28.30;98.80
11615;DHT22;5863;52.832;4.758;2022-08-21T06:52:26;28.70;97.50
11615;DHT22;5863;52.832;4.758;2022-08-21T06:54:53;29.00;96.60
11615;DHT22;5863;52.832;4.758;2022-08-21T06:57:20;29.30;95.80
11615;DHT22;5863;52.832;4.758;2022-08-21T06:59:48;29.60;94.90
11615;DHT22;5863;52.832;4.758;2022-08-21T07:02:15;29.80;94.20
11615;DHT22;5863;52.832;4.758;2022-08-21T07:04:43;30.00;93.50
11615;DHT22;5863;52.832;4.758;2022-08-21T07:07:10;30.20;92.80
11615;DHT22;5863;52.832;4.758;2022-08-21T07:09:36;30.40;92.30
11615;DHT22;5863;52.832;4.758;2022-08-21T07:12:04;30.50;91.80
11615;DHT22;5863;52.832;4.758;2022-08-21T07:14:30;30.70;91.20
11615;DHT22;5863;52.832;4.758;2022-08-21T07:16:57;30.70;91.20
11615;DHT22;5863;52.832;4.758;2022-08-21T07:19:24;30.60;91.00
11615;DHT22;5863;52.832;4.758;2022-08-21T07:21:54;30.50;91.40
11615;DHT22;5863;52.832;4.758;2022-08-21T07:24:21;30.70;91.10
11615;DHT22;5863;52.832;4.758;2022-08-21T07:26:48;30.90;90.50
11615;DHT22;5863;52.832;4.758;2022-08-21T07:29:15;31.10;90.10
11615;DHT22;5863;52.832;4.758;2022-08-21T07:31:42;31.20;89.80
11615;DHT22;5863;52.832;4.758;2022-08-21T07:34:09;31.10;89.50
11615;DHT22;5863;52.832;4.758;2022-08-21T07:36:36;30.20;90.10
11615;DHT22;5863;52.832;4.758;2022-08-21T07:39:04;29.60;90.80
11615;DHT22;5863;52.832;4.758;2022-08-21T07:41:31;29.60;91.10
11615;DHT22;5863;52.832;4.758;2022-08-21T07:44:00;30.10;90.60
11615;DHT22;5863;52.832;4.758;2022-08-21T07:46:26;30.70;90.30
11615;DHT22;5863;52.832;4.758;2022-08-21T07:48:53;31.10;88.80
11615;DHT22;5863;52.832;4.758;2022-08-21T07:51:23;31.50;86.20
11615;DHT22;5863;52.832;4.758;2022-08-21T07:53:53;31.80;83.40
11615;DHT22;5863;52.832;4.758;2022-08-21T07:56:22;31.90;82.70
11615;DHT22;5863;52.832;4.758;2022-08-21T07:58:48;31.90;82.70
11615;DHT22;5863;52.832;4.758;2022-08-21T08:01:15;31.60;84.10
11615;DHT22;5863;52.832;4.758;2022-08-21T08:03:42;31.40;85.10
11615;DHT22;5863;52.832;4.758;2022-08-21T08:06:11;31.00;86.50
11615;DHT22;5863;52.832;4.758;2022-08-21T08:08:39;30.90;87.20
11615;DHT22;5863;52.832;4.758;2022-08-21T08:11:07;31.00;87.00
11615;DHT22;5863;52.832;4.758;2022-08-21T08:13:39;31.10;86.50
11615;DHT22;5863;52.832;4.758;2022-08-21T08:16:07;30.90;87.20
11615;DHT22;5863;52.832;4.758;2022-08-21T08:18:33;30.60;88.30
11615;DHT22;5863;52.832;4.758;2022-08-21T08:21:00;30.20;89.30
11615;DHT22;5863;52.832;4.758;2022-08-21T08:23:27;29.80;90.10
11615;DHT22;5863;52.832;4.758;2022-08-21T08:25:55;29.50;90.20
11615;DHT22;5863;52.832;4.758;2022-08-21T08:28:22;29.30;90.50
11615;DHT22;5863;52.832;4.758;2022-08-21T08:30:50;29.00;90.80
11615;DHT22;5863;52.832;4.758;2022-08-21T08:33:17;28.60;91.10
11615;DHT22;5863;52.832;4.758;2022-08-21T08:35:46;28.10;91.80
11615;DHT22;5863;52.832;4.758;2022-08-21T08:38:14;27.80;92.50
11615;DHT22;5863;52.832;4.758;2022-08-21T08:40:49;27.20;93.10
11615;DHT22;5863;52.832;4.758;2022-08-21T08:43:18;27.00;93.90
11615;DHT22;5863;52.832;4.758;2022-08-21T08:45:50;26.90;94.40
11615;DHT22;5863;52.832;4.758;2022-08-21T08:48:33;26.90;94.30
11615;DHT22;5863;52.832;4.758;2022-08-21T08:51:06;26.60;94.60
11615;DHT22;5863;52.832;4.758;2022-08-21T08:53:42;26.50;95.00
11615;DHT22;5863;52.832;4.758;2022-08-21T08:56:11;26.60;95.20
11615;DHT22;5863;52.832;4.758;2022-08-21T08:58:41;26.50;95.00
11615;DHT22;5863;52.832;4.758;2022-08-21T09:01:13;26.30;95.10
11615;DHT22;5863;52.832;4.758;2022-08-21T09:03:43;26.20;95.60
11615;DHT22;5863;52.832;4.758;2022-08-21T09:06:26;26.20;95.70
11615;DHT22;5863;52.832;4.758;2022-08-21T09:09:13;26.10;95.80
11615;DHT22;5863;52.832;4.758;2022-08-21T09:11:48;26.00;95.80
11615;DHT22;5863;52.832;4.758;2022-08-21T09:14:22;25.90;96.10
11615;DHT22;5863;52.832;4.758;2022-08-21T09:16:55;25.70;96.40
11615;DHT22;5863;52.832;4.758;2022-08-21T09:19:38;25.60;96.80
11615;DHT22;5863;52.832;4.758;2022-08-21T09:22:17;25.60;97.00
11615;DHT22;5863;52.832;4.758;2022-08-21T09:24:58;25.60;96.80
11615;DHT22;5863;52.832;4.758;2022-08-21T09:27:29;25.70;96.80
11615;DHT22;5863;52.832;4.758;2022-08-21T09:29:57;25.60;96.70
11615;DHT22;5863;52.832;4.758;2022-08-21T09:32:26;25.70;96.80
11615;DHT22;5863;52.832;4.758;2022-08-21T09:35:01;25.60;96.60
11615;DHT22;5863;52.832;4.758;2022-08-21T09:37:31;25.50;96.90
11615;DHT22;5863;52.832;4.758;2022-08-21T09:40:00;25.50;97.00
11615;DHT22;5863;52.832;4.758;2022-08-21T09:42:30;25.50;96.90
11615;DHT22;5863;52.832;4.758;2022-08-21T09:45:12;25.60;96.80
11615;DHT22;5863;52.832;4.758;2022-08-21T09:47:39;25.80;96.80
11615;DHT22;5863;52.832;4.758;2022-08-21T09:50:13;25.80;96.50
11615;DHT22;5863;52.832;4.758;2022-08-21T09:52:46;25.80;96.20
11615;DHT22;5863;52.832;4.758;2022-08-21T09:55:18;25.70;95.90
11615;DHT22;5863;52.832;4.758;2022-08-21T09:58:01;25.60;96.20
11615;DHT22;5863;52.832;4.758;2022-08-21T10:00:31;25.70;96.20
11615;DHT22;5863;52.832;4.758;2022-08-21T10:03:17;25.60;96.10
11615;DHT22;5863;52.832;4.758;2022-08-21T10:05:55;25.70;96.00
11615;DHT22;5863;52.832;4.758;2022-08-21T10:08:23;25.60;95.80
11615;DHT22;5863;52.832;4.758;2022-08-21T10:10:54;25.70;96.10
11615;DHT22;5863;52.832;4.758;2022-08-21T10:13:27;25.70;96.20
11615;DHT22;5863;52.832;4.758;2022-08-21T10:16:09;25.80;96.40
11615;DHT22;5863;52.832;4.758;2022-08-21T10:18:42;25.90;96.30
11615;DHT22;5863;52.832;4.758;2022-08-21T10:21:19;25.90;96.00
11615;DHT22;5863;52.832;4.758;2022-08-21T10:24:00;25.80;96.10
11615;DHT22;5863;52.832;4.758;2022-08-21T10:26:35;25.80;96.50
11615;DHT22;5863;52.832;4.758;2022-08-21T10:29:14;25.80;96.10
11615;DHT22;5863;52.832;4.758;2022-08-21T10:31:47;25.70;96.30
11615;DHT22;5863;52.832;4.758;2022-08-21T10:34:28;25.70;96.40
11615;DHT22;5863;52.832;4.758;2022-08-21T10:37:12;25.70;96.20
11615;DHT22;5863;52.832;4.758;2022-08-21T10:39:45;25.80;96.20
11615;DHT22;5863;52.832;4.758;2022-08-21T10:42:29;25.80;96.30
11615;DHT22;5863;52.832;4.758;2022-08-21T10:45:07;25.80;96.40
11615;DHT22;5863;52.832;4.758;2022-08-21T10:47:42;25.70;96.20
11615;DHT22;5863;52.832;4.758;2022-08-21T10:50:17;25.70;96.10
11615;DHT22;5863;52.832;4.758;2022-08-21T10:55:44;25.60;96.40
11615;DHT22;5863;52.832;4.758;2022-08-21T10:58:17;25.70;96.40
11615;DHT22;5863;52.832;4.758;2022-08-21T11:00:48;25.60;96.30
11615;DHT22;5863;52.832;4.758;2022-08-21T11:03:20;25.60;96.40
11615;DHT22;5863;52.832;4.758;2022-08-21T11:05:52;25.60;96.20
11615;DHT22;5863;52.832;4.758;2022-08-21T11:08:26;25.60;96.50
11615;DHT22;5863;52.832;4.758;2022-08-21T11:10:59;25.50;96.20
11615;DHT22;5863;52.832;4.758;2022-08-21T11:13:32;25.60;96.00
11615;DHT22;5863;52.832;4.758;2022-08-21T11:16:07;25.60;95.70
11615;DHT22;5863;52.832;4.758;2022-08-21T11:18:38;25.50;95.80
11615;DHT22;5863;52.832;4.758;2022-08-21T11:21:19;25.40;96.00
11615;DHT22;5863;52.832;4.758;2022-08-21T11:23:57;25.40;96.00
11615;DHT22;5863;52.832;4.758;2022-08-21T11:26:32;25.40;95.80
11615;DHT22;5863;52.832;4.758;2022-08-21T11:29:05;25.40;95.70
11615;DHT22;5863;52.832;4.758;2022-08-21T11:31:40;25.30;95.80
11615;DHT22;5863;52.832;4.758;2022-08-21T11:34:20;25.20;95.80
11615;DHT22;5863;52.832;4.758;2022-08-21T11:36:55;25.10;95.90
11615;DHT22;5863;52.832;4.758;2022-08-21T11:39:32;25.10;96.10
11615;DHT22;5863;52.832;4.758;2022-08-21T11:42:07;25.10;96.40
11615;DHT22;5863;52.832;4.758;2022-08-21T11:44:48;25.10;96.00
11615;DHT22;5863;52.832;4.758;2022-08-21T11:47:21;24.90;95.90
11615;DHT22;5863;52.832;4.758;2022-08-21T11:50:06;24.80;95.90
11615;DHT22;5863;52.832;4.758;2022-08-21T11:52:39;24.70;96.10
11615;DHT22;5863;52.832;4.758;2022-08-21T11:55:18;24.70;96.30
11615;DHT22;5863;52.832;4.758;2022-08-21T11:57:52;24.50;96.80
11615;DHT22;5863;52.832;4.758;2022-08-21T12:00:24;24.60;97.20
11615;DHT22;5863;52.832;4.758;2022-08-21T12:02:55;24.50;96.90
11615;DHT22;5863;52.832;4.758;2022-08-21T12:05:29;24.60;96.90
11615;DHT22;5863;52.832;4.758;2022-08-21T12:08:04;24.50;96.50
11615;DHT22;5863;52.832;4.758;2022-08-21T12:10:35;24.30;96.70
11615;DHT22;5863;52.832;4.758;2022-08-21T12:13:11;24.30;97.00
11615;DHT22;5863;52.832;4.758;2022-08-21T12:15:40;24.20;96.60
11615;DHT22;5863;52.832;4.758;2022-08-21T12:18:21;24.10;96.60
11615;DHT22;5863;52.832;4.758;2022-08-21T12:21:03;24.00;97.10
11615;DHT22;5863;52.832;4.758;2022-08-21T12:23:32;24.00;96.90
11615;DHT22;5863;52.832;4.758;2022-08-21T12:29:07;23.80;97.00
11615;DHT22;5863;52.832;4.758;2022-08-21T12:31:49;23.80;97.40
11615;DHT22;5863;52.832;4.758;2022-08-21T12:34:16;23.70;97.50
11615;DHT22;5863;52.832;4.758;2022-08-21T12:36:45;23.70;97.20
11615;DHT22;5863;52.832;4.758;2022-08-21T12:39:17;23.60;97.40
11615;DHT22;5863;52.832;4.758;2022-08-21T12:41:53;23.60;97.70
11615;DHT22;5863;52.832;4.758;2022-08-21T12:44:28;23.50;98.00
11615;DHT22;5863;52.832;4.758;2022-08-21T12:47:02;23.50;98.20
11615;DHT22;5863;52.832;4.758;2022-08-21T12:49:33;23.50;98.30
11615;DHT22;5863;52.832;4.758;2022-08-21T12:52:05;23.40;97.90
11615;DHT22;5863;52.832;4.758;2022-08-21T12:54:38;23.40;98.20
11615;DHT22;5863;52.832;4.758;2022-08-21T12:57:07;23.40;98.50
11615;DHT22;5863;52.832;4.758;2022-08-21T12:59:38;23.30;98.40
11615;DHT22;5863;52.832;4.758;2022-08-21T13:02:13;23.30;98.90
11615;DHT22;5863;52.832;4.758;2022-08-21T13:04:42;23.30;98.90
11615;DHT22;5863;52.832;4.758;2022-08-21T13:07:11;23.30;99.40
11615;DHT22;5863;52.832;4.758;2022-08-21T13:09:43;23.20;99.40
11615;DHT22;5863;52.832;4.758;2022-08-21T13:12:13;23.20;99.50
11615;DHT22;5863;52.832;4.758;2022-08-21T13:14:44;23.30;99.40
11615;DHT22;5863;52.832;4.758;2022-08-21T13:17:12;23.30;99.00
11615;DHT22;5863;52.832;4.758;2022-08-21T13:19:40;23.40;98.80
11615;DHT22;5863;52.832;4.758;2022-08-21T13:22:12;23.30;99.00
11615;DHT22;5863;52.832;4.758;2022-08-21T13:24:39;23.30;99.30
11615;DHT22;5863;52.832;4.758;2022-08-21T13:27:22;23.40;99.40
11615;DHT22;5863;52.832;4.758;2022-08-21T13:30:00;23.40;99.20
11615;DHT22;5863;52.832;4.758;2022-08-21T13:32:29;23.30;99.60
11615;DHT22;5863;52.832;4.758;2022-08-21T13:34:57;23.40;99.80
11615;DHT22;5863;52.832;4.758;2022-08-21T13:37:26;23.40;99.50
11615;DHT22;5863;52.832;4.758;2022-08-21T13:39:54;23.40;99.10
11615;DHT22;5863;52.832;4.758;2022-08-21T13:42:22;23.40;99.00
11615;DHT22;5863;52.832;4.758;2022-08-21T13:44:52;23.40;99.10
11615;DHT22;5863;52.832;4.758;2022-08-21T13:47:19;23.30;99.30
11615;DHT22;5863;52.832;4.758;2022-08-21T13:49:47;23.30;99.30
11615;DHT22;5863;52.832;4.758;2022-08-21T13:52:18;23.30;99.60
11615;DHT22;5863;52.832;4.758;2022-08-21T13:54:53;23.30;99.60
11615;DHT22;5863;52.832;4.758;2022-08-21T13:57:27;23.40;99.90
11615;DHT22;5863;52.832;4.758;2022-08-21T14:00:11;23.40;99.90
11615;DHT22;5863;52.832;4.758;2022-08-21T14:02:39;23.30;99.90
11615;DHT22;5863;52.832;4.758;2022-08-21T14:05:07;23.40;99.90
11615;DHT22;5863;52.832;4.758;2022-08-21T14:07:41;23.50;99.80
11615;DHT22;5863;52.832;4.758;2022-08-21T14:10:14;23.50;99.40
11615;DHT22;5863;52.832;4.758;2022-08-21T14:12:46;23.50;99.00
11615;DHT22;5863;52.832;4.758;2022-08-21T14:15:14;23.50;98.90
11615;DHT22;5863;52.832;4.758;2022-08-21T14:17:44;23.40;98.70
11615;DHT22;5863;52.832;4.758;2022-08-21T14:20:25;23.40;98.90
11615;DHT22;5863;52.832;4.758;2022-08-21T14:22:52;23.40;99.30
11615;DHT22;5863;52.832;4.758;2022-08-21T14:25:29;23.40;99.20
11615;DHT22;5863;52.832;4.758;2022-08-21T14:28:10;23.40;98.40
11615;DHT22;5863;52.832;4.758;2022-08-21T14:30:40;23.40;98.40
11615;DHT22;5863;52.832;4.758;2022-08-21T14:33:10;23.30;98.80
11615;DHT22;5863;52.832;4.758;2022-08-21T14:35:37;23.30;99.00
11615;DHT22;5863;52.832;4.758;2022-08-21T14:38:11;23.30;98.90
11615;DHT22;5863;52.832;4.758;2022-08-21T14:40:38;23.30;98.90
11615;DHT22;5863;52.832;4.758;2022-08-21T14:43:06;23.20;99.00
11615;DHT22;5863;52.832;4.758;2022-08-21T14:45:34;23.20;98.70
11615;DHT22;5863;52.832;4.758;2022-08-21T14:48:02;23.00;99.00
11615;DHT22;5863;52.832;4.758;2022-08-21T14:50:29;23.10;99.30
11615;DHT22;5863;52.832;4.758;2022-08-21T14:52:56;23.00;99.30
11615;DHT22;5863;52.832;4.758;2022-08-21T14:55:24;23.00;99.60
11615;DHT22;5863;52.832;4.758;2022-08-21T14:57:52;23.00;99.40
11615;DHT22;5863;52.832;4.758;2022-08-21T15:00:23;22.90;99.50
11615;DHT22;5863;52.832;4.758;2022-08-21T15:02:50;22.90;99.50
11615;DHT22;5863;52.832;4.758;2022-08-21T15:05:18;22.90;99.60
11615;DHT22;5863;52.832;4.758;2022-08-21T15:07:45;22.80;99.60
11615;DHT22;5863;52.832;4.758;2022-08-21T15:10:12;22.80;99.90
11615;DHT22;5863;52.832;4.758;2022-08-21T15:12:39;22.80;99.90
11615;DHT22;5863;52.832;4.758;2022-08-21T15:15:07;22.80;99.90
11615;DHT22;5863;52.832;4.758;2022-08-21T15:17:37;22.80;99.90
11615;DHT22;5863;52.832;4.758;2022-08-21T15:20:04;22.70;99.90
11615;DHT22;5863;52.832;4.758;2022-08-21T15:22:33;22.70;99.90
11615;DHT22;5863;52.832;4.758;2022-08-21T15:25:00;22.70;99.90
11615;DHT22;5863;52.832;4.758;2022-08-21T15:27:28;22.60;99.90
11615;DHT22;5863;52.832;4.758;2022-08-21T15:29:55;22.60;99.90
11615;DHT22;5863;52.832;4.758;2022-08-21T15:32:23;22.60;99.90
11615;DHT22;5863;52.832;4.758;2022-08-21T15:34:52;22.60;99.90
11615;DHT22;5863;52.832;4.758;2022-08-21T15:37:20;22.50;99.90
11615;DHT22;5863;52.832;4.758;2022-08-21T15:39:47;22.50;99.90
11615;DHT22;5863;52.832;4.758;2022-08-21T15:42:14;22.50;99.90
11615;DHT22;5863;52.832;4.758;2022-08-21T15:44:42;22.50;99.90
11615;DHT22;5863;52.832;4.758;2022-08-21T15:47:13;22.50;99.90
11615;DHT22;5863;52.832;4.758;2022-08-21T15:49:41;22.40;99.90
11615;DHT22;5863;52.832;4.758;2022-08-21T15:52:12;22.40;99.90
11615;DHT22;5863;52.832;4.758;2022-08-21T15:54:38;22.40;99.90
11615;DHT22;5863;52.832;4.758;2022-08-21T15:57:05;22.30;99.90
11615;DHT22;5863;52.832;4.758;2022-08-21T15:59:38;22.30;99.90
11615;DHT22;5863;52.832;4.758;2022-08-21T16:02:07;22.30;99.90
11615;DHT22;5863;52.832;4.758;2022-08-21T16:04:37;22.30;99.90
11615;DHT22;5863;52.832;4.758;2022-08-21T16:07:04;22.40;99.90
11615;DHT22;5863;52.832;4.758;2022-08-21T16:09:32;22.40;99.90